createdAt,value
2023-04-25T00:01:38.696Z,90.30
2023-04-25T00:04:07.766Z,90.60
2023-04-25T00:06:38.041Z,90.40
2023-04-25T00:09:08.434Z,90.50
2023-04-25T00:11:36.443Z,90.50
2023-04-25T00:14:05.660Z,90.30
2023-04-25T00:16:35.989Z,90.40
2023-04-25T00:19:05.796Z,90.50
2023-04-25T00:21:33.944Z,90.10
2023-04-25T00:24:02.228Z,90.50
2023-04-25T00:26:30.456Z,90.70
2023-04-25T00:28:58.302Z,90.50
2023-04-25T00:31:26.212Z,90.20
2023-04-25T00:33:54.343Z,90.30
2023-04-25T00:36:23.934Z,89.70
2023-04-25T00:38:51.780Z,89.20
2023-04-25T00:41:20.548Z,89.20
2023-04-25T00:43:49.970Z,88.80
2023-04-25T00:46:18.254Z,89.50
2023-04-25T00:48:46.599Z,89.70
2023-04-25T00:51:18.149Z,89.40
2023-04-25T00:53:49.056Z,88.90
2023-04-25T00:56:18.195Z,88.80
2023-04-25T00:58:46.588Z,88.70
2023-04-25T01:01:15.359Z,89.10
2023-04-25T01:03:44.169Z,89.10
2023-04-25T01:06:13.451Z,89.60
2023-04-25T01:08:41.637Z,89.10
2023-04-25T01:11:10.924Z,89.50
2023-04-25T01:13:39.066Z,89.30
2023-04-25T01:16:07.509Z,89.30
2023-04-25T01:18:35.586Z,89.20
2023-04-25T01:21:11.038Z,89.00
2023-04-25T01:23:40.499Z,89.10
2023-04-25T01:26:10.145Z,88.40
2023-04-25T01:28:38.383Z,88.50
2023-04-25T01:31:06.843Z,87.40
2023-04-25T01:33:35.211Z,87.90
2023-04-25T01:36:03.206Z,88.20
2023-04-25T01:38:32.550Z,88.00
2023-04-25T01:41:00.603Z,87.70
2023-04-25T01:43:28.756Z,88.00
2023-04-25T01:45:57.344Z,87.80
2023-04-25T01:48:25.498Z,87.40
2023-04-25T01:50:53.489Z,86.70
2023-04-25T01:53:21.349Z,87.00
2023-04-25T01:55:50.656Z,87.40
2023-04-25T01:58:18.493Z,86.70
2023-04-25T02:00:46.526Z,86.80
2023-04-25T02:03:14.591Z,86.80
2023-04-25T02:05:42.766Z,87.00
2023-04-25T02:08:12.027Z,87.20
2023-04-25T02:10:39.940Z,87.50
2023-04-25T02:13:09.250Z,86.70
2023-04-25T02:15:37.332Z,87.20
2023-04-25T02:18:07.571Z,87.50
2023-04-25T02:20:35.767Z,86.90
2023-04-25T02:23:03.731Z,87.30
2023-04-25T02:25:32.015Z,86.90
2023-04-25T02:27:59.920Z,87.40
2023-04-25T02:30:29.448Z,87.10
2023-04-25T02:32:57.619Z,87.60
2023-04-25T02:35:25.840Z,87.30
2023-04-25T02:37:54.546Z,87.70
2023-04-25T02:40:22.407Z,87.20
2023-04-25T02:42:50.516Z,87.00
2023-04-25T02:45:18.517Z,87.10
2023-04-25T02:47:47.847Z,87.50
2023-04-25T02:50:15.695Z,87.20
2023-04-25T02:52:43.514Z,87.00
2023-04-25T02:55:11.754Z,87.20
2023-04-25T02:57:39.858Z,86.90
2023-04-25T03:00:09.253Z,86.60
2023-04-25T03:02:37.191Z,86.50
2023-04-25T03:05:06.929Z,87.30
2023-04-25T03:07:34.993Z,87.30
2023-04-25T03:10:03.568Z,86.60
2023-04-25T03:12:31.599Z,86.80
2023-04-25T03:14:59.693Z,87.00
2023-04-25T03:17:27.822Z,87.00
2023-04-25T03:19:56.136Z,86.30
2023-04-25T03:22:25.677Z,86.80
2023-04-25T03:24:53.543Z,86.10
2023-04-25T03:27:21.584Z,86.70
2023-04-25T03:29:49.928Z,86.00
2023-04-25T03:32:18.009Z,85.90
2023-04-25T03:34:46.018Z,86.10
2023-04-25T03:37:14.232Z,85.80
2023-04-25T03:39:43.648Z,85.80
2023-04-25T03:42:11.504Z,85.80
2023-04-25T03:44:39.579Z,85.90
2023-04-25T03:47:07.502Z,85.80
2023-04-25T03:49:36.529Z,85.50
2023-04-25T03:52:05.203Z,85.50
2023-04-25T03:54:33.603Z,85.90
2023-04-25T03:57:04.501Z,85.30
2023-04-25T03:59:32.397Z,85.50
2023-04-25T04:02:00.352Z,85.60
2023-04-25T04:04:28.374Z,86.40
2023-04-25T04:06:56.609Z,85.80
2023-04-25T04:09:24.582Z,85.70
2023-04-25T04:11:52.466Z,86.10
2023-04-25T04:14:21.831Z,86.00
2023-04-25T04:16:49.970Z,85.60
2023-04-25T04:19:17.922Z,85.80
2023-04-25T04:21:46.054Z,85.20
2023-04-25T04:24:14.297Z,85.80
2023-04-25T04:26:42.155Z,85.00
2023-04-25T04:29:09.988Z,85.10
2023-04-25T04:31:39.235Z,85.40
2023-04-25T04:34:07.376Z,84.40
2023-04-25T04:36:35.267Z,83.80
2023-04-25T04:39:04.462Z,84.30
2023-04-25T04:41:32.303Z,83.00
2023-04-25T04:44:02.047Z,83.10
2023-04-25T04:46:30.214Z,83.40
2023-04-25T04:48:59.658Z,82.60
2023-04-25T04:51:27.716Z,83.00
2023-04-25T04:53:59.456Z,82.50
2023-04-25T04:56:27.375Z,82.10
2023-04-25T04:58:55.456Z,82.60
2023-04-25T05:01:23.782Z,82.50
2023-04-25T05:03:53.023Z,82.70
2023-04-25T05:06:22.737Z,82.00
2023-04-25T05:08:50.630Z,82.20
2023-04-25T05:11:18.563Z,82.30
2023-04-25T05:13:46.587Z,82.50
2023-04-25T05:16:14.646Z,81.80
2023-04-25T05:18:42.500Z,81.90
2023-04-25T05:21:10.381Z,82.70
2023-04-25T05:23:39.877Z,81.90
2023-04-25T05:26:14.674Z,82.40
2023-04-25T05:28:43.229Z,82.00
2023-04-25T05:31:12.318Z,82.50
2023-04-25T05:33:40.265Z,82.10
2023-04-25T05:36:09.244Z,82.60
2023-04-25T05:38:37.284Z,81.50
2023-04-25T05:41:06.623Z,81.40
2023-04-25T05:43:34.474Z,82.10
2023-04-25T05:46:02.646Z,80.90
2023-04-25T05:48:31.157Z,81.30
2023-04-25T05:50:59.198Z,81.40
2023-04-25T05:53:27.113Z,81.30
2023-04-25T05:55:55.202Z,81.10
2023-04-25T05:58:24.962Z,81.20
2023-04-25T06:00:53.151Z,82.20
2023-04-25T06:03:21.482Z,81.70
2023-04-25T06:05:50.015Z,81.50
2023-04-25T06:08:18.162Z,81.40
2023-04-25T06:10:46.216Z,81.40
2023-04-25T06:13:14.277Z,80.20
2023-04-25T06:15:43.896Z,81.10
2023-04-25T06:18:11.869Z,80.10
2023-04-25T06:20:39.909Z,78.90
2023-04-25T06:23:07.843Z,78.90
2023-04-25T06:25:35.975Z,79.50
2023-04-25T06:28:03.943Z,80.30
2023-04-25T06:30:31.973Z,79.80
2023-04-25T06:33:01.340Z,78.00
2023-04-25T06:35:29.496Z,78.80
2023-04-25T06:37:57.416Z,79.40
2023-04-25T06:40:25.689Z,76.50
2023-04-25T06:42:53.782Z,78.00
2023-04-25T06:45:21.659Z,77.50
2023-04-25T06:47:49.571Z,77.60
2023-04-25T06:50:18.905Z,77.70
2023-04-25T06:52:47.159Z,77.40
2023-04-25T06:55:15.121Z,76.40
2023-04-25T06:57:42.971Z,77.20
2023-04-25T07:00:12.141Z,76.20
2023-04-25T07:02:40.104Z,75.00
2023-04-25T07:05:08.447Z,76.50
2023-04-25T07:07:37.659Z,74.90
2023-04-25T07:10:06.371Z,76.80
2023-04-25T07:12:34.494Z,75.60
2023-04-25T07:15:06.798Z,76.70
2023-04-25T07:17:35.808Z,76.10
2023-04-25T07:20:04.641Z,75.20
2023-04-25T07:22:32.770Z,75.80
2023-04-25T07:25:02.116Z,72.30
2023-04-25T07:27:30.095Z,73.10
2023-04-25T07:29:58.308Z,74.40
2023-04-25T07:32:27.466Z,70.40
2023-04-25T07:34:55.392Z,69.30
2023-04-25T07:37:23.571Z,69.00
2023-04-25T07:39:51.475Z,71.80
2023-04-25T07:42:20.867Z,73.70
2023-04-25T07:44:48.760Z,67.00
2023-04-25T07:47:16.696Z,66.60
2023-04-25T07:49:44.576Z,64.30
2023-04-25T07:52:12.434Z,65.90
2023-04-25T07:54:40.357Z,64.30
2023-04-25T07:57:08.390Z,63.50
2023-04-25T07:59:38.216Z,63.60
2023-04-25T08:02:06.373Z,63.90
2023-04-25T08:04:34.532Z,61.00
2023-04-25T08:07:02.646Z,61.40
2023-04-25T08:09:34.994Z,61.50
2023-04-25T08:12:03.261Z,59.80
2023-04-25T08:14:36.647Z,61.70
2023-04-25T08:17:06.403Z,60.20
2023-04-25T08:19:34.583Z,60.10
2023-04-25T08:22:02.665Z,61.50
2023-04-25T08:24:30.560Z,60.70
2023-04-25T08:26:59.768Z,62.60
2023-04-25T08:29:29.610Z,62.40
2023-04-25T08:31:57.981Z,59.10
2023-04-25T08:34:27.564Z,61.70
2023-04-25T08:36:55.516Z,59.90
2023-04-25T08:39:23.699Z,62.70
2023-04-25T08:41:53.553Z,57.40
2023-04-25T08:44:22.909Z,59.90
2023-04-25T08:46:51.622Z,58.20
2023-04-25T08:49:20.020Z,56.50
2023-04-25T08:51:51.501Z,59.60
2023-04-25T08:54:33.978Z,53.60
2023-04-25T08:57:05.436Z,55.30
2023-04-25T08:59:36.567Z,58.60
2023-04-25T09:02:05.978Z,57.80
2023-04-25T09:04:34.096Z,58.10
2023-04-25T09:07:03.409Z,55.60
2023-04-25T09:09:32.389Z,58.20
2023-04-25T09:12:02.741Z,53.70
2023-04-25T09:14:30.934Z,54.40
2023-04-25T09:17:04.465Z,51.00
2023-04-25T09:22:06.773Z,50.10
2023-04-25T09:24:37.103Z,51.60
2023-04-25T09:27:08.676Z,51.50
2023-04-25T09:29:39.214Z,52.20
2023-04-25T09:32:23.284Z,53.30
2023-04-25T09:34:52.695Z,53.40
2023-04-25T09:37:23.721Z,49.50
2023-04-25T09:39:52.801Z,52.10
2023-04-25T09:42:25.005Z,51.30
2023-04-25T09:44:54.934Z,52.60
2023-04-25T09:47:24.752Z,58.90
2023-04-25T09:49:53.837Z,59.30
2023-04-25T09:52:26.201Z,61.10
2023-04-25T09:54:56.252Z,63.90
2023-04-25T09:57:25.298Z,64.70
2023-04-25T09:59:54.375Z,63.80
2023-04-25T10:02:24.176Z,65.40
2023-04-25T10:04:55.547Z,63.30
2023-04-25T10:07:28.792Z,58.70
2023-04-25T10:10:02.903Z,59.10
2023-04-25T10:12:32.144Z,60.00
2023-04-25T10:15:01.405Z,58.60
2023-04-25T10:17:29.912Z,57.90
2023-04-25T10:19:58.369Z,57.30
2023-04-25T10:22:32.945Z,58.50
2023-04-25T10:25:01.315Z,59.90
2023-04-25T10:27:30.334Z,58.50
2023-04-25T10:30:06.314Z,63.50
2023-04-25T10:32:34.742Z,69.80
2023-04-25T10:35:13.424Z,68.50
2023-04-25T10:37:59.480Z,70.50
2023-04-25T10:40:28.065Z,70.10
2023-04-25T10:42:57.175Z,69.00
2023-04-25T10:45:25.393Z,69.50
2023-04-25T10:47:53.249Z,67.30
2023-04-25T10:50:21.322Z,69.70
2023-04-25T10:52:50.729Z,69.40
2023-04-25T10:55:18.516Z,61.90
2023-04-25T10:57:49.316Z,64.00
2023-04-25T11:00:19.388Z,62.80
2023-04-25T11:02:48.726Z,59.80
2023-04-25T11:05:32.852Z,59.50
2023-04-25T11:08:08.285Z,63.20
2023-04-25T11:10:37.457Z,61.50
2023-04-25T11:13:05.873Z,58.20
2023-04-25T11:15:33.750Z,56.90
2023-04-25T11:18:02.354Z,62.70
2023-04-25T11:20:30.583Z,56.20
2023-04-25T11:23:00.703Z,58.20
2023-04-25T11:25:30.801Z,58.80
2023-04-25T11:28:01.711Z,57.00
2023-04-25T11:30:29.739Z,51.70
2023-04-25T11:32:58.763Z,52.40
2023-04-25T11:35:27.003Z,54.10
2023-04-25T11:37:54.943Z,54.60
2023-04-25T11:40:23.035Z,49.60
2023-04-25T11:42:55.124Z,51.80
2023-04-25T11:45:25.415Z,49.60
2023-04-25T11:47:54.094Z,51.00
2023-04-25T11:50:22.267Z,53.50
2023-04-25T11:52:51.208Z,55.60
2023-04-25T11:55:21.516Z,54.40
2023-04-25T11:57:52.270Z,55.50
2023-04-25T12:00:22.302Z,58.80
2023-04-25T12:02:54.261Z,58.50
2023-04-25T12:05:32.859Z,58.90
2023-04-25T12:08:13.620Z,55.40
2023-04-25T12:10:42.914Z,51.00
2023-04-25T12:13:22.908Z,52.20
2023-04-25T12:15:50.908Z,50.10
2023-04-25T12:18:22.502Z,49.80
2023-04-25T12:20:50.821Z,53.00
2023-04-25T12:23:19.203Z,52.70
2023-04-25T12:25:48.012Z,51.40
2023-04-25T12:28:17.056Z,53.80
2023-04-25T12:30:57.162Z,61.90
2023-04-25T12:33:25.495Z,68.30
2023-04-25T12:35:54.051Z,72.90
2023-04-25T12:38:26.120Z,74.30
2023-04-25T12:40:54.146Z,75.80
2023-04-25T12:43:22.654Z,72.90
2023-04-25T12:45:51.859Z,77.40
2023-04-25T12:48:21.976Z,79.70
2023-04-25T12:50:50.680Z,78.60
2023-04-25T12:53:18.753Z,76.60
2023-04-25T12:55:48.209Z,78.30
2023-04-25T12:58:16.259Z,79.30
2023-04-25T13:00:44.212Z,73.20
2023-04-25T13:03:13.453Z,71.30
2023-04-25T13:05:43.102Z,73.30
2023-04-25T13:08:10.885Z,68.70
2023-04-25T13:10:40.063Z,75.30
2023-04-25T13:13:08.216Z,66.30
2023-04-25T13:15:36.298Z,67.70
2023-04-25T13:18:06.395Z,62.00
2023-04-25T13:20:34.575Z,63.30
2023-04-25T13:23:03.835Z,62.10
2023-04-25T13:25:31.742Z,64.20
2023-04-25T13:27:59.645Z,60.40
2023-04-25T13:30:27.578Z,60.30
2023-04-25T13:32:57.935Z,53.50
2023-04-25T13:35:26.725Z,54.30
2023-04-25T13:37:54.876Z,56.20
2023-04-25T13:40:25.624Z,53.00
2023-04-25T13:42:53.668Z,51.60
2023-04-25T13:45:22.519Z,54.10
2023-04-25T13:47:51.085Z,54.60
2023-04-25T13:50:19.720Z,57.60
2023-04-25T13:52:47.836Z,55.40
2023-04-25T13:55:15.801Z,56.30
2023-04-25T13:57:44.991Z,61.20
2023-04-25T14:00:14.389Z,67.20
2023-04-25T14:02:42.282Z,66.40
2023-04-25T14:05:11.010Z,67.00
2023-04-25T14:07:39.034Z,67.20
2023-04-25T14:10:08.501Z,64.60
2023-04-25T14:12:36.464Z,65.70
2023-04-25T14:15:06.859Z,65.70
2023-04-25T14:17:34.807Z,60.80
2023-04-25T14:20:02.819Z,61.40
2023-04-25T14:22:30.853Z,60.30
2023-04-25T14:24:58.978Z,60.40
2023-04-25T14:27:29.116Z,58.60
2023-04-25T14:29:57.278Z,62.00
2023-04-25T14:32:26.797Z,61.00
2023-04-25T14:34:54.627Z,61.00
2023-04-25T14:37:22.704Z,61.50
2023-04-25T14:39:50.539Z,62.40
2023-04-25T14:42:18.348Z,59.50
2023-04-25T14:44:46.426Z,60.10
2023-04-25T14:47:14.338Z,53.70
2023-04-25T14:49:43.881Z,54.30
2023-04-25T14:52:11.677Z,51.70
2023-04-25T14:54:39.482Z,53.30
2023-04-25T14:57:07.281Z,53.20
2023-04-25T14:59:35.111Z,53.00
2023-04-25T15:02:02.949Z,56.70
2023-04-25T15:04:31.707Z,56.80
2023-04-25T15:07:01.063Z,53.70
2023-04-25T15:09:29.693Z,56.60
2023-04-25T15:11:57.770Z,56.60
2023-04-25T15:14:25.697Z,55.10
2023-04-25T15:16:53.535Z,59.30
2023-04-25T15:19:21.353Z,58.30
2023-04-25T15:21:49.209Z,56.00
2023-04-25T15:24:18.960Z,54.20
2023-04-25T15:26:47.771Z,56.90
2023-04-25T15:29:16.394Z,58.30
2023-04-25T15:31:44.300Z,58.30
2023-04-25T15:34:12.484Z,59.30
2023-04-25T15:36:40.321Z,57.60
2023-04-25T15:39:08.218Z,61.00
2023-04-25T15:41:38.232Z,59.70
2023-04-25T15:44:08.070Z,57.20
2023-04-25T15:46:35.981Z,59.30
2023-04-25T15:49:03.940Z,62.20
2023-04-25T15:51:31.914Z,65.60
2023-04-25T15:56:39.441Z,66.80
2023-04-25T15:59:07.614Z,66.00
2023-04-25T16:01:35.579Z,64.20
2023-04-25T16:04:03.950Z,63.30
2023-04-25T16:06:32.005Z,64.10
2023-04-25T16:09:00.361Z,63.70
2023-04-25T16:11:30.203Z,65.00
2023-04-25T16:13:59.624Z,62.40
2023-04-25T16:16:27.635Z,62.10
2023-04-25T16:18:55.839Z,57.50
2023-04-25T16:21:23.961Z,57.00
2023-04-25T16:23:52.321Z,56.40
2023-04-25T16:26:20.580Z,54.50
2023-04-25T16:28:51.614Z,53.60
2023-04-25T16:31:21.186Z,54.50
2023-04-25T16:33:49.583Z,53.50
2023-04-25T16:36:18.011Z,52.10
2023-04-25T16:38:45.937Z,52.10
2023-04-25T16:41:14.089Z,49.30
2023-04-25T16:43:42.024Z,47.70
2023-04-25T16:46:10.142Z,48.10
2023-04-25T16:48:39.653Z,44.90
2023-04-25T16:51:07.720Z,48.00
2023-04-25T16:53:36.215Z,47.00
2023-04-25T16:56:04.629Z,46.40
2023-04-25T16:58:32.960Z,48.20
2023-04-25T17:01:01.402Z,52.30
2023-04-25T17:03:29.677Z,52.20
2023-04-25T17:06:01.364Z,53.20
2023-04-25T17:08:29.573Z,51.50
2023-04-25T17:10:57.642Z,51.70
2023-04-25T17:13:31.089Z,51.70
2023-04-25T17:15:59.686Z,56.00
2023-04-25T17:18:28.347Z,53.70
2023-04-25T17:20:58.199Z,55.10
2023-04-25T17:23:26.402Z,54.40
2023-04-25T17:25:54.439Z,53.80
2023-04-25T17:28:22.869Z,52.40
2023-04-25T17:30:51.076Z,53.80
2023-04-25T17:33:19.144Z,59.20
2023-04-25T17:35:47.669Z,57.60
2023-04-25T17:38:17.137Z,59.60
2023-04-25T17:40:45.227Z,62.50
2023-04-25T17:43:13.447Z,63.10
2023-04-25T17:45:41.707Z,65.20
2023-04-25T17:48:09.845Z,63.10
2023-04-25T17:50:38.083Z,63.10
2023-04-25T17:53:06.300Z,63.50
2023-04-25T17:55:35.816Z,63.60
2023-04-25T17:58:04.117Z,65.60
2023-04-25T18:00:33.550Z,61.90
2023-04-25T18:03:01.549Z,63.30
2023-04-25T18:05:31.164Z,61.90
2023-04-25T18:07:59.428Z,60.70
2023-04-25T18:10:27.378Z,61.50
2023-04-25T18:12:56.776Z,63.40
2023-04-25T18:15:24.975Z,61.50
2023-04-25T18:17:53.079Z,61.40
2023-04-25T18:20:22.229Z,62.70
2023-04-25T18:22:50.751Z,62.70
2023-04-25T18:25:19.051Z,63.10
2023-04-25T18:27:47.363Z,64.80
2023-04-25T18:30:16.922Z,64.40
2023-04-25T18:32:44.893Z,64.70
2023-04-25T18:35:12.826Z,65.30
2023-04-25T18:37:42.336Z,65.20
2023-04-25T18:40:13.843Z,66.00
2023-04-25T18:42:42.084Z,67.50
2023-04-25T18:45:11.689Z,66.30
2023-04-25T18:47:41.025Z,66.40
2023-04-25T18:50:09.818Z,66.30
2023-04-25T18:52:38.354Z,67.70
2023-04-25T18:55:07.398Z,66.30
2023-04-25T18:57:36.009Z,66.90
2023-04-25T19:00:07.017Z,66.70
2023-04-25T19:02:37.064Z,68.30
2023-04-25T19:05:07.465Z,66.80
2023-04-25T19:07:36.160Z,68.20
2023-04-25T19:10:04.848Z,67.70
2023-04-25T19:12:33.501Z,68.70
2023-04-25T19:15:01.732Z,68.30
2023-04-25T19:17:30.524Z,69.00
2023-04-25T19:19:58.607Z,69.40
2023-04-25T19:22:28.473Z,70.00
2023-04-25T19:25:09.125Z,69.80
2023-04-25T19:27:38.999Z,70.40
2023-04-25T19:30:11.488Z,71.70
2023-04-25T19:32:39.962Z,71.10
2023-04-25T19:35:11.643Z,71.20
2023-04-25T19:37:46.302Z,71.00
2023-04-25T19:40:16.010Z,70.90
2023-04-25T19:42:44.087Z,71.80
2023-04-25T19:45:13.006Z,71.60
2023-04-25T19:47:41.833Z,71.50
2023-04-25T19:50:11.198Z,71.40
2023-04-25T19:52:41.654Z,71.80
2023-04-25T19:55:11.260Z,72.10
2023-04-25T19:57:39.563Z,73.00
2023-04-25T20:00:10.743Z,71.90
2023-04-25T20:02:39.041Z,72.90
2023-04-25T20:05:08.322Z,71.80
2023-04-25T20:07:37.094Z,71.60
2023-04-25T20:10:08.139Z,71.20
2023-04-25T20:12:37.624Z,72.10
2023-04-25T20:15:06.699Z,71.50
2023-04-25T20:17:35.058Z,72.50
2023-04-25T20:20:04.131Z,72.00
2023-04-25T20:22:36.031Z,72.00
2023-04-25T20:25:08.323Z,72.40
2023-04-25T20:27:37.795Z,73.10
2023-04-25T20:30:07.985Z,72.90
2023-04-25T20:32:36.684Z,72.70
2023-04-25T20:35:07.357Z,73.20
2023-04-25T20:37:35.965Z,73.60
2023-04-25T20:40:08.606Z,74.00
2023-04-25T20:42:36.967Z,74.00
2023-04-25T20:45:07.529Z,74.60
2023-04-25T20:47:35.935Z,74.70
2023-04-25T20:50:05.905Z,74.80
2023-04-25T20:52:34.394Z,75.50
2023-04-25T20:55:02.288Z,75.50
2023-04-25T20:57:32.255Z,75.30
2023-04-25T21:00:00.101Z,75.70
2023-04-25T21:02:28.894Z,75.70
2023-04-25T21:04:56.864Z,76.00
2023-04-25T21:07:24.972Z,76.50
2023-04-25T21:09:53.087Z,76.30
2023-04-25T21:12:21.186Z,76.40
2023-04-25T21:14:50.611Z,77.10
2023-04-25T21:17:18.534Z,77.30
2023-04-25T21:19:46.487Z,78.10
2023-04-25T21:22:14.741Z,79.00
2023-04-25T21:24:42.570Z,79.60
2023-04-25T21:27:10.751Z,78.70
2023-04-25T21:29:38.916Z,78.60
2023-04-25T21:32:08.861Z,78.90
2023-04-25T21:34:36.763Z,79.10
2023-04-25T21:37:04.673Z,80.10
2023-04-25T21:39:33.006Z,79.70
2023-04-25T21:42:01.806Z,79.40
2023-04-25T21:44:30.399Z,79.20
2023-04-25T21:46:58.354Z,79.00
2023-04-25T21:49:29.714Z,79.00
2023-04-25T21:51:57.904Z,79.10
2023-04-25T21:54:26.104Z,79.10
2023-04-25T21:56:54.210Z,79.30
2023-04-25T21:59:24.810Z,79.50
2023-04-25T22:01:54.327Z,79.40
2023-04-25T22:04:22.727Z,79.10
2023-04-25T22:06:52.845Z,79.00
2023-04-25T22:09:20.772Z,79.10
2023-04-25T22:11:48.760Z,79.20
2023-04-25T22:14:16.741Z,79.20
2023-04-25T22:16:44.947Z,79.10
2023-04-25T22:19:12.974Z,79.30
2023-04-25T22:21:40.889Z,79.00
2023-04-25T22:24:10.497Z,79.50
2023-04-25T22:26:38.486Z,79.30
2023-04-25T22:29:06.829Z,79.40
2023-04-25T22:31:34.955Z,79.50
2023-04-25T22:34:03.395Z,79.70
2023-04-25T22:36:31.336Z,79.70
2023-04-25T22:38:59.213Z,79.80
2023-04-25T22:41:28.592Z,79.40
2023-04-25T22:43:56.826Z,79.40
2023-04-25T22:46:24.811Z,79.60
2023-04-25T22:48:53.382Z,80.10
2023-04-25T22:51:22.180Z,79.90
2023-04-25T22:53:50.162Z,80.10
2023-04-25T22:56:18.370Z,80.50
2023-04-25T22:58:49.533Z,80.70
2023-04-25T23:01:19.301Z,80.80
2023-04-25T23:03:48.596Z,80.90
2023-04-25T23:06:17.083Z,81.10
2023-04-25T23:08:45.341Z,80.80
2023-04-25T23:11:14.035Z,81.30
2023-04-25T23:13:41.872Z,81.00
2023-04-25T23:16:12.788Z,81.40
2023-04-25T23:18:41.277Z,81.40
2023-04-25T23:21:09.357Z,81.40
2023-04-25T23:23:37.908Z,81.60
2023-04-25T23:26:08.927Z,81.50
2023-04-25T23:28:39.920Z,81.70
2023-04-25T23:31:12.059Z,81.90
2023-04-25T23:33:40.386Z,81.80
2023-04-25T23:36:08.436Z,81.90
2023-04-25T23:38:36.242Z,81.60
2023-04-25T23:41:04.332Z,81.80
2023-04-25T23:43:32.432Z,82.10
2023-04-25T23:46:00.331Z,82.30
2023-04-25T23:48:29.617Z,82.80
2023-04-25T23:50:57.501Z,82.80
2023-04-25T23:53:25.588Z,82.80
2023-04-25T23:55:53.604Z,82.40
2023-04-25T23:58:21.498Z,82.50
